Santa Cruz/El Trompillo, Bolivia
Current Conditions -  °F | °C
As of 10:00 AM on Saturday 20 Dec 2014 (Local Time) from SLET Reporting Station
Overcast Overcast  
Wind Chill: 77°   Ceiling: 1100
Heat Index: 78°   Visibility: 6mi
Dew Point: 72°   Wind: 21mph
Humidity: 83%   Direction: 310°NW
Pressure: 29.68"   Gusts: 33mph
Location:  17.81°S, 63.17°W
Report Text: SLET 201400Z 31018G29KT 9999 SCT008 BKN011 OVC015 25/22 Q1005
Loading
Personal Weather Stations






























Interactive Weather Map New forecast layout! Learn more

10-Day Weather Forecast

Advertisements
Track Severe Weather on mobile